createdAt,value
2024-05-09T00:02:03.375Z,2.70
2024-05-09T00:04:36.053Z,3.50
2024-05-09T00:07:08.300Z,3.60
2024-05-09T00:09:40.545Z,2.90
2024-05-09T00:12:12.789Z,3.10
2024-05-09T00:14:45.181Z,2.90
2024-05-09T00:17:17.881Z,2.60
2024-05-09T00:19:50.243Z,3.70
2024-05-09T00:22:22.734Z,2.90
2024-05-09T00:24:54.809Z,3.10
2024-05-09T00:27:27.173Z,3.40
2024-05-09T00:29:59.369Z,3.40
2024-05-09T00:32:31.686Z,3.70
2024-05-09T00:35:04.039Z,3.00
2024-05-09T00:37:37.164Z,3.00
2024-05-09T00:40:18.316Z,3.20
2024-05-09T00:42:55.238Z,3.60
2024-05-09T00:45:27.528Z,2.90
2024-05-09T00:48:01.189Z,3.30
2024-05-09T00:50:36.945Z,3.30
2024-05-09T00:53:12.160Z,3.70
2024-05-09T00:55:45.562Z,3.20
2024-05-09T00:58:21.839Z,3.60
2024-05-09T01:00:55.244Z,3.50
2024-05-09T01:03:28.287Z,3.20
2024-05-09T01:06:00.585Z,3.00
2024-05-09T01:08:33.849Z,3.60
2024-05-09T01:11:08.027Z,3.70
2024-05-09T01:13:40.909Z,3.10
2024-05-09T01:16:14.579Z,3.40
2024-05-09T01:18:46.795Z,3.30
2024-05-09T01:21:19.184Z,3.80
2024-05-09T01:23:51.747Z,4.00
2024-05-09T01:26:24.221Z,3.50
2024-05-09T01:28:56.502Z,3.50
2024-05-09T01:31:29.510Z,4.00
2024-05-09T01:34:02.170Z,3.40
2024-05-09T01:36:35.004Z,3.70
2024-05-09T01:39:07.332Z,3.00
2024-05-09T01:41:39.622Z,3.40
2024-05-09T01:44:12.080Z,3.70
2024-05-09T01:46:44.376Z,3.80
2024-05-09T01:49:16.930Z,3.90
2024-05-09T01:51:49.182Z,3.80
2024-05-09T01:54:21.780Z,3.60
2024-05-09T01:56:53.999Z,3.60
2024-05-09T01:59:26.461Z,3.80
2024-05-09T02:01:58.938Z,3.40
2024-05-09T02:04:32.598Z,4.80
2024-05-09T02:07:05.104Z,3.90
2024-05-09T02:09:37.537Z,4.30
2024-05-09T02:12:11.064Z,3.70
2024-05-09T02:14:43.546Z,4.70
2024-05-09T02:17:15.786Z,5.40
2024-05-09T02:19:48.199Z,5.40
2024-05-09T02:22:20.526Z,6.10
2024-05-09T02:24:53.053Z,6.30
2024-05-09T02:27:25.658Z,7.40
2024-05-09T02:29:58.411Z,6.20
2024-05-09T02:32:30.992Z,7.20
2024-05-09T02:35:03.654Z,6.40
2024-05-09T02:37:36.013Z,6.00
2024-05-09T02:40:14.610Z,5.20
2024-05-09T02:42:50.444Z,5.30
2024-05-09T02:45:24.812Z,5.00
2024-05-09T02:47:57.667Z,5.30
2024-05-09T02:50:37.167Z,4.90
2024-05-09T02:53:12.355Z,5.10
2024-05-09T02:55:46.109Z,5.60
2024-05-09T02:58:18.782Z,5.20
2024-05-09T03:00:51.312Z,4.70
2024-05-09T03:03:24.264Z,5.40
2024-05-09T03:05:57.026Z,4.80
2024-05-09T03:08:29.728Z,4.70
2024-05-09T03:11:01.988Z,4.80
2024-05-09T03:13:34.418Z,4.80
2024-05-09T03:16:07.309Z,5.00
2024-05-09T03:18:39.769Z,4.90
2024-05-09T03:21:12.824Z,4.90
2024-05-09T03:23:45.950Z,4.40
2024-05-09T03:26:19.533Z,5.20
2024-05-09T03:28:51.881Z,5.30
2024-05-09T03:31:24.109Z,5.10
2024-05-09T03:33:56.455Z,5.20
2024-05-09T03:36:28.971Z,4.70
2024-05-09T03:39:01.210Z,4.50
2024-05-09T03:41:33.789Z,5.40
2024-05-09T03:44:07.151Z,4.60
2024-05-09T03:46:43.186Z,4.40
2024-05-09T03:49:15.734Z,3.70
2024-05-09T03:51:49.493Z,4.00
2024-05-09T03:54:22.541Z,4.40
2024-05-09T03:56:54.718Z,4.20
2024-05-09T03:59:27.424Z,4.50
2024-05-09T04:01:59.998Z,4.00
2024-05-09T04:04:32.695Z,4.00
2024-05-09T04:07:06.188Z,3.80
2024-05-09T04:09:38.493Z,3.90
2024-05-09T04:12:11.311Z,4.00
2024-05-09T04:14:44.198Z,3.90
2024-05-09T04:17:16.694Z,3.70
2024-05-09T04:19:48.913Z,3.70
2024-05-09T04:22:21.472Z,3.50
2024-05-09T04:24:54.072Z,3.50
2024-05-09T04:27:26.395Z,3.80
2024-05-09T04:29:59.042Z,4.00
2024-05-09T04:32:31.614Z,3.90
2024-05-09T04:35:04.422Z,3.60
2024-05-09T04:37:37.666Z,3.30
2024-05-09T04:40:21.009Z,4.00
2024-05-09T04:43:00.859Z,3.80
2024-05-09T04:45:33.193Z,3.50
2024-05-09T04:48:08.992Z,3.70
2024-05-09T04:50:41.819Z,3.60
2024-05-09T04:53:18.150Z,3.70
2024-05-09T04:55:51.501Z,4.00
2024-05-09T04:58:23.879Z,4.10
2024-05-09T05:00:56.209Z,3.90
2024-05-09T05:03:28.875Z,3.70
2024-05-09T05:06:01.327Z,4.00
2024-05-09T05:08:34.567Z,4.30
2024-05-09T05:11:08.071Z,4.40
2024-05-09T05:13:41.658Z,3.40
2024-05-09T05:16:14.401Z,3.90
2024-05-09T05:18:46.827Z,4.00
2024-05-09T05:21:19.783Z,3.80
2024-05-09T05:23:52.266Z,3.40
2024-05-09T05:26:24.731Z,3.90
2024-05-09T05:28:57.370Z,3.50
2024-05-09T05:31:30.262Z,3.30
2024-05-09T05:34:02.615Z,3.60
2024-05-09T05:36:35.341Z,3.20
2024-05-09T05:39:08.607Z,3.90
2024-05-09T05:41:41.588Z,3.70
2024-05-09T05:44:15.939Z,3.60
2024-05-09T05:46:48.614Z,3.50
2024-05-09T05:49:21.598Z,3.70
2024-05-09T05:51:54.513Z,2.70
2024-05-09T05:54:27.198Z,3.20
2024-05-09T05:57:00.678Z,3.10
2024-05-09T05:59:33.209Z,2.90
2024-05-09T06:02:05.829Z,3.20
2024-05-09T06:04:39.158Z,3.40
2024-05-09T06:07:11.838Z,3.80
2024-05-09T06:09:46.058Z,3.10
2024-05-09T06:12:20.029Z,3.20
2024-05-09T06:14:52.378Z,3.20
2024-05-09T06:17:24.881Z,3.20
2024-05-09T06:19:57.997Z,3.30
2024-05-09T06:22:30.390Z,3.60
2024-05-09T06:25:03.090Z,3.30
2024-05-09T06:27:35.863Z,3.30
2024-05-09T06:30:21.137Z,3.10
2024-05-09T06:32:59.577Z,3.50
2024-05-09T06:35:33.655Z,3.40
2024-05-09T06:38:09.252Z,3.10
2024-05-09T06:40:44.080Z,3.50
2024-05-09T06:43:19.395Z,3.20
2024-05-09T06:45:53.680Z,2.70
2024-05-09T06:48:26.340Z,2.90
2024-05-09T06:50:58.930Z,3.40
2024-05-09T06:53:31.504Z,3.20
2024-05-09T06:56:04.233Z,3.10
2024-05-09T06:58:36.749Z,3.00
2024-05-09T07:01:11.060Z,2.90
2024-05-09T07:03:44.195Z,2.90
2024-05-09T07:06:17.880Z,3.10
2024-05-09T07:08:52.393Z,2.80
2024-05-09T07:13:55.938Z,3.10
2024-05-09T07:16:28.616Z,2.80
2024-05-09T07:19:01.319Z,2.60
2024-05-09T07:21:33.811Z,2.40
2024-05-09T07:24:06.827Z,2.40
2024-05-09T07:26:39.579Z,2.00
2024-05-09T07:29:12.246Z,1.80
2024-05-09T07:31:45.058Z,1.60
2024-05-09T07:34:17.831Z,1.70
2024-05-09T07:36:51.045Z,1.90
2024-05-09T07:39:23.625Z,1.70
2024-05-09T07:41:56.453Z,1.50
2024-05-09T07:44:30.710Z,1.60
2024-05-09T07:48:14.408Z,2.10
2024-05-09T07:51:33.069Z,1.80
2024-05-09T07:53:35.368Z,1.60
2024-05-09T07:55:44.380Z,1.70
2024-05-09T07:58:17.611Z,2.10
2024-05-09T08:00:50.418Z,1.70
2024-05-09T08:03:23.593Z,1.80
2024-05-09T08:05:57.013Z,1.60
2024-05-09T08:08:29.623Z,1.60
2024-05-09T08:11:03.505Z,1.30
2024-05-09T08:13:36.032Z,1.40
2024-05-09T08:16:09.946Z,2.20
2024-05-09T08:18:42.688Z,1.80
2024-05-09T08:21:15.508Z,1.50
2024-05-09T08:23:48.138Z,1.80
2024-05-09T08:26:20.908Z,1.60
2024-05-09T08:28:53.681Z,1.70
2024-05-09T08:31:26.409Z,1.80
2024-05-09T08:33:59.121Z,1.90
2024-05-09T08:36:31.663Z,1.60
2024-05-09T08:39:04.606Z,1.80
2024-05-09T08:41:42.848Z,2.00
2024-05-09T08:44:15.677Z,1.70
2024-05-09T08:46:52.624Z,1.50
2024-05-09T08:49:26.325Z,1.90
2024-05-09T08:51:59.047Z,1.70
2024-05-09T08:54:32.386Z,1.40
2024-05-09T08:57:07.497Z,1.80
2024-05-09T08:59:47.610Z,1.30
2024-05-09T09:02:23.496Z,1.60
2024-05-09T09:05:02.257Z,1.90
2024-05-09T09:07:36.212Z,1.60
2024-05-09T09:10:12.894Z,1.70
2024-05-09T09:12:58.043Z,1.80
2024-05-09T09:15:30.876Z,1.70
2024-05-09T09:18:04.354Z,1.40
2024-05-09T09:20:37.381Z,2.20
2024-05-09T09:23:10.829Z,1.70
2024-05-09T09:25:44.279Z,1.50
2024-05-09T09:28:17.119Z,1.90
2024-05-09T09:30:49.962Z,1.80
2024-05-09T09:33:25.336Z,1.50
2024-05-09T09:35:57.933Z,1.70
2024-05-09T09:38:33.128Z,2.40
2024-05-09T09:41:10.903Z,1.80
2024-05-09T09:43:44.485Z,2.20
2024-05-09T09:46:19.294Z,2.20
2024-05-09T09:48:52.702Z,1.80
2024-05-09T09:51:26.285Z,1.80
2024-05-09T09:54:00.252Z,1.70
2024-05-09T09:56:34.509Z,1.70
2024-05-09T09:59:08.226Z,1.70
2024-05-09T10:01:41.113Z,2.00
2024-05-09T10:04:17.042Z,1.60
2024-05-09T10:06:52.800Z,1.50
2024-05-09T10:09:26.097Z,1.50
2024-05-09T10:12:00.397Z,1.60
2024-05-09T10:14:40.939Z,1.50
2024-05-09T10:17:13.277Z,1.30
2024-05-09T10:19:46.278Z,1.60
2024-05-09T10:22:29.982Z,1.20
2024-05-09T10:25:08.439Z,1.80
2024-05-09T10:27:41.325Z,1.70
2024-05-09T10:30:33.666Z,1.70
2024-05-09T10:33:13.020Z,1.70
2024-05-09T10:35:54.045Z,1.60
2024-05-09T10:38:26.762Z,1.80
2024-05-09T10:41:01.484Z,1.60
2024-05-09T10:43:34.853Z,1.40
2024-05-09T10:46:08.947Z,1.90
2024-05-09T10:48:43.869Z,2.00
2024-05-09T10:51:17.896Z,1.50
2024-05-09T10:53:52.690Z,2.10
2024-05-09T10:56:25.110Z,1.70
2024-05-09T10:58:57.626Z,1.40
2024-05-09T11:01:32.648Z,1.90
2024-05-09T11:04:05.682Z,1.90
2024-05-09T11:06:42.488Z,1.70
2024-05-09T11:09:16.433Z,1.90
2024-05-09T11:11:49.439Z,1.60
2024-05-09T11:14:21.994Z,1.70
2024-05-09T11:17:05.873Z,1.60
2024-05-09T11:19:41.125Z,1.90
2024-05-09T11:22:17.981Z,1.70
2024-05-09T11:24:54.903Z,1.60
2024-05-09T11:27:27.759Z,1.60
2024-05-09T11:30:01.459Z,1.50
2024-05-09T11:32:34.198Z,1.60
2024-05-09T11:35:07.846Z,2.00
2024-05-09T11:37:41.342Z,1.70
2024-05-09T11:40:21.357Z,1.40
2024-05-09T11:42:58.106Z,1.90
2024-05-09T11:45:32.047Z,2.10
2024-05-09T11:48:05.012Z,1.70
2024-05-09T11:50:37.603Z,1.70
2024-05-09T11:53:10.571Z,1.50
2024-05-09T11:55:43.611Z,1.60
2024-05-09T11:58:17.903Z,1.70
2024-05-09T12:00:51.266Z,1.70
2024-05-09T12:03:25.264Z,1.80
2024-05-09T12:05:58.367Z,1.50
2024-05-09T12:08:31.466Z,1.70
2024-05-09T12:11:04.468Z,1.50
2024-05-09T12:13:37.117Z,1.60
2024-05-09T12:16:10.516Z,1.50
2024-05-09T12:18:43.323Z,1.70
2024-05-09T12:21:17.568Z,1.50
2024-05-09T12:23:50.669Z,1.80
2024-05-09T12:26:23.917Z,1.70
2024-05-09T12:28:56.629Z,1.60
2024-05-09T12:31:29.248Z,1.30
2024-05-09T12:34:02.359Z,1.60
2024-05-09T12:36:35.268Z,1.60
2024-05-09T12:39:09.227Z,1.30
2024-05-09T12:41:41.913Z,1.60
2024-05-09T12:44:14.477Z,1.20
2024-05-09T12:46:47.172Z,1.50
2024-05-09T12:49:20.365Z,1.50
2024-05-09T12:51:53.205Z,1.70
2024-05-09T12:54:25.672Z,1.40
2024-05-09T12:56:59.590Z,1.60
2024-05-09T12:59:32.006Z,1.70
2024-05-09T13:02:05.051Z,1.90
2024-05-09T13:04:37.900Z,1.40
2024-05-09T13:07:11.384Z,1.20
2024-05-09T13:09:44.155Z,1.60
2024-05-09T13:12:16.685Z,1.60
2024-05-09T13:14:49.107Z,1.60
2024-05-09T13:17:21.937Z,1.60
2024-05-09T13:19:54.441Z,1.90
2024-05-09T13:22:27.476Z,1.40
2024-05-09T13:25:00.268Z,1.60
2024-05-09T13:27:33.234Z,1.70
2024-05-09T13:30:12.028Z,1.40
2024-05-09T13:32:53.571Z,1.50
2024-05-09T13:35:26.822Z,1.20
2024-05-09T13:38:02.297Z,1.60
2024-05-09T13:40:36.410Z,1.80
2024-05-09T13:43:09.640Z,1.70
2024-05-09T13:45:42.807Z,1.50
2024-05-09T13:48:15.774Z,1.70
2024-05-09T13:50:48.727Z,1.40
2024-05-09T13:53:21.304Z,1.30
2024-05-09T13:55:54.177Z,1.60
2024-05-09T13:58:26.730Z,1.50
2024-05-09T14:00:59.937Z,1.50
2024-05-09T14:03:33.195Z,1.50
2024-05-09T14:06:08.745Z,1.20
2024-05-09T14:08:43.456Z,1.30
2024-05-09T14:11:16.166Z,1.70
2024-05-09T14:17:38.238Z,1.50
2024-05-09T14:20:14.188Z,1.30
2024-05-09T14:22:49.081Z,1.30
2024-05-09T14:25:22.620Z,1.70
2024-05-09T14:27:57.587Z,1.40
2024-05-09T14:30:36.572Z,1.70
2024-05-09T14:33:11.567Z,1.70
2024-05-09T14:35:44.737Z,1.50
2024-05-09T14:38:17.485Z,1.40
2024-05-09T14:40:50.883Z,1.40
2024-05-09T14:43:23.679Z,1.40
2024-05-09T14:45:57.423Z,1.40
2024-05-09T14:48:30.807Z,1.40
2024-05-09T14:51:09.478Z,1.60
2024-05-09T14:53:45.676Z,1.50
2024-05-09T14:56:19.389Z,1.40
2024-05-09T14:58:51.997Z,1.50
2024-05-09T15:01:28.272Z,1.80
2024-05-09T15:04:06.611Z,1.50
2024-05-09T15:06:42.771Z,1.40
2024-05-09T15:09:16.167Z,1.50
2024-05-09T15:11:50.236Z,1.30
2024-05-09T15:14:23.780Z,1.50
2024-05-09T15:16:57.271Z,1.40
2024-05-09T15:19:31.031Z,1.30
2024-05-09T15:22:04.195Z,1.50
2024-05-09T15:24:38.053Z,1.60
2024-05-09T15:27:12.741Z,1.50
2024-05-09T15:29:46.529Z,2.70
2024-05-09T15:32:19.610Z,1.60
2024-05-09T15:34:53.402Z,1.60
2024-05-09T15:37:26.394Z,1.30
2024-05-09T15:40:00.212Z,1.50
2024-05-09T15:42:33.093Z,1.60
2024-05-09T15:45:07.835Z,1.30
2024-05-09T15:47:41.029Z,1.20
2024-05-09T15:50:20.579Z,1.40
2024-05-09T15:53:01.523Z,1.60
2024-05-09T15:55:34.615Z,1.60
2024-05-09T15:58:08.588Z,1.30
2024-05-09T16:00:43.525Z,1.40
2024-05-09T16:03:21.357Z,1.40
2024-05-09T16:05:55.758Z,1.30
2024-05-09T16:08:29.229Z,1.40
2024-05-09T16:11:02.242Z,1.60
2024-05-09T16:13:36.056Z,1.30
2024-05-09T16:16:10.806Z,1.70
2024-05-09T16:18:46.680Z,1.40
2024-05-09T16:21:19.867Z,1.70
2024-05-09T16:23:52.549Z,1.60
2024-05-09T16:26:24.749Z,1.50
2024-05-09T16:28:57.214Z,1.50
2024-05-09T16:31:30.216Z,1.80
2024-05-09T16:34:05.910Z,1.60
2024-05-09T16:36:41.114Z,1.50
2024-05-09T16:39:14.196Z,1.30
2024-05-09T16:41:47.327Z,1.90
2024-05-09T16:44:20.258Z,1.40
2024-05-09T16:46:52.686Z,1.40
2024-05-09T16:49:26.874Z,1.60
2024-05-09T16:51:59.818Z,1.40
2024-05-09T16:54:34.679Z,1.50
2024-05-09T16:57:08.692Z,1.70
2024-05-09T16:59:41.343Z,1.60
2024-05-09T17:02:14.131Z,1.70
2024-05-09T17:04:47.205Z,1.40
2024-05-09T17:07:23.249Z,1.30
2024-05-09T17:09:55.808Z,1.50
2024-05-09T17:12:29.031Z,1.40
2024-05-09T17:15:01.672Z,1.30
2024-05-09T17:17:34.596Z,1.60
2024-05-09T17:20:15.589Z,1.20
2024-05-09T17:22:56.572Z,1.40
2024-05-09T17:25:29.268Z,1.70
2024-05-09T17:28:07.668Z,1.30
2024-05-09T17:30:42.803Z,1.60
2024-05-09T17:33:16.069Z,1.30
2024-05-09T17:35:50.840Z,1.70
2024-05-09T17:40:56.118Z,1.60
2024-05-09T17:43:29.622Z,1.40
2024-05-09T17:46:03.443Z,1.40
2024-05-09T17:48:36.507Z,1.40
2024-05-09T17:51:09.025Z,1.50
2024-05-09T17:53:41.882Z,1.80
2024-05-09T17:56:14.409Z,1.90
2024-05-09T17:58:49.021Z,1.40
2024-05-09T18:03:52.684Z,1.60
2024-05-09T18:06:25.102Z,1.70
2024-05-09T18:09:03.812Z,2.20
2024-05-09T18:11:37.584Z,1.90
2024-05-09T18:14:10.297Z,2.10
2024-05-09T18:16:43.100Z,1.90
2024-05-09T18:19:16.026Z,2.00
2024-05-09T18:21:49.565Z,3.20
2024-05-09T18:24:22.911Z,2.70
2024-05-09T18:26:57.536Z,3.30
2024-05-09T18:29:30.464Z,9.30
2024-05-09T18:32:03.991Z,18.90
2024-05-09T18:34:36.526Z,22.80
2024-05-09T18:37:10.758Z,31.70
2024-05-09T18:39:44.240Z,52.00
2024-05-09T18:42:17.762Z,62.30
2024-05-09T18:44:51.016Z,108.90
2024-05-09T18:47:25.620Z,143.70
2024-05-09T18:49:58.940Z,102.40
2024-05-09T18:52:32.063Z,69.80
2024-05-09T18:55:05.552Z,53.50
2024-05-09T18:57:41.466Z,31.60
2024-05-09T19:00:30.940Z,29.80
2024-05-09T19:03:15.142Z,14.90
2024-05-09T19:05:51.335Z,9.10
2024-05-09T19:08:26.011Z,6.80
2024-05-09T19:11:02.123Z,5.70
2024-05-09T19:13:36.559Z,4.20
2024-05-09T19:16:10.952Z,4.50
2024-05-09T19:18:47.167Z,4.30
2024-05-09T19:21:21.891Z,5.30
2024-05-09T19:23:56.903Z,5.50
2024-05-09T19:26:33.907Z,4.90
2024-05-09T19:29:10.401Z,5.20
2024-05-09T19:31:46.753Z,5.00
2024-05-09T19:34:23.882Z,4.70
2024-05-09T19:37:03.284Z,5.00
2024-05-09T19:39:38.938Z,5.80
2024-05-09T19:42:14.281Z,5.10
2024-05-09T19:47:21.112Z,4.60
2024-05-09T19:49:56.821Z,4.50
2024-05-09T19:52:32.254Z,4.30
2024-05-09T19:55:06.396Z,4.70
2024-05-09T19:57:46.067Z,4.10
2024-05-09T20:00:26.692Z,5.10
2024-05-09T20:03:07.943Z,5.10
2024-05-09T20:05:47.080Z,5.50
2024-05-09T20:08:23.718Z,5.50
2024-05-09T20:11:02.444Z,5.80
2024-05-09T20:13:35.787Z,6.20
2024-05-09T20:16:12.191Z,8.60
2024-05-09T20:18:48.531Z,9.50
2024-05-09T20:21:25.444Z,8.80
2024-05-09T20:24:01.568Z,8.70
2024-05-09T20:26:39.341Z,13.60
2024-05-09T20:29:13.608Z,13.10
2024-05-09T20:31:48.639Z,15.80
2024-05-09T20:34:22.822Z,17.00
2024-05-09T20:36:59.415Z,12.50
2024-05-09T20:39:39.260Z,17.20
2024-05-09T20:42:15.575Z,18.10
2024-05-09T20:44:48.629Z,19.10
2024-05-09T20:47:23.174Z,17.00
2024-05-09T20:49:57.732Z,16.40
2024-05-09T20:55:07.539Z,14.10
2024-05-09T20:57:41.162Z,13.20
2024-05-09T21:00:18.978Z,12.60
2024-05-09T21:02:56.493Z,11.20
2024-05-09T21:05:31.725Z,12.40
2024-05-09T21:08:05.869Z,13.60
2024-05-09T21:10:40.882Z,14.10
2024-05-09T21:13:14.204Z,14.00
2024-05-09T21:15:48.020Z,13.90
2024-05-09T21:18:21.060Z,12.40
2024-05-09T21:20:53.579Z,12.00
2024-05-09T21:23:26.445Z,11.50
2024-05-09T21:25:58.863Z,12.60
2024-05-09T21:28:31.511Z,14.10
2024-05-09T21:31:04.344Z,14.00
2024-05-09T21:33:37.340Z,13.80
2024-05-09T21:36:11.824Z,14.40
2024-05-09T21:38:44.557Z,15.10
2024-05-09T21:41:17.148Z,14.60
2024-05-09T21:43:49.554Z,14.00
2024-05-09T21:46:22.191Z,13.40
2024-05-09T21:48:54.998Z,15.60
2024-05-09T21:51:27.440Z,15.90
2024-05-09T21:54:00.312Z,15.10
2024-05-09T21:56:35.326Z,13.50
2024-05-09T21:59:07.648Z,14.50
2024-05-09T22:01:40.199Z,17.60
2024-05-09T22:04:12.761Z,14.70
2024-05-09T22:06:45.278Z,14.60
2024-05-09T22:09:17.689Z,13.50
2024-05-09T22:11:52.572Z,13.90
2024-05-09T22:14:25.864Z,14.10
2024-05-09T22:16:58.185Z,12.80
2024-05-09T22:19:30.702Z,14.20
2024-05-09T22:22:02.803Z,13.10
2024-05-09T22:24:35.044Z,13.70
2024-05-09T22:27:08.816Z,13.10
2024-05-09T22:29:41.169Z,12.80
2024-05-09T22:32:13.599Z,12.30
2024-05-09T22:34:46.145Z,14.30
2024-05-09T22:37:18.437Z,12.70
2024-05-09T22:39:50.906Z,13.20
2024-05-09T22:42:23.237Z,12.60
2024-05-09T22:44:55.658Z,11.80
2024-05-09T22:47:27.996Z,10.50
2024-05-09T22:50:00.605Z,9.40
2024-05-09T22:52:33.636Z,8.60
2024-05-09T22:55:07.875Z,9.90
2024-05-09T22:57:40.163Z,11.90
2024-05-09T23:00:16.100Z,12.40
2024-05-09T23:02:48.661Z,11.30
2024-05-09T23:05:22.045Z,10.20
2024-05-09T23:07:54.404Z,9.30
2024-05-09T23:10:32.474Z,8.80
2024-05-09T23:13:09.798Z,8.20
2024-05-09T23:15:43.510Z,8.50
2024-05-09T23:18:22.002Z,7.60
2024-05-09T23:20:54.698Z,7.90
2024-05-09T23:23:27.170Z,7.70
2024-05-09T23:25:59.385Z,7.30
2024-05-09T23:28:32.037Z,7.80
2024-05-09T23:31:04.173Z,8.50
2024-05-09T23:33:36.590Z,7.80
2024-05-09T23:36:10.214Z,7.40
2024-05-09T23:38:43.509Z,6.80
2024-05-09T23:41:15.642Z,7.10
2024-05-09T23:43:48.844Z,7.20
2024-05-09T23:46:21.359Z,6.60
2024-05-09T23:48:54.159Z,6.60
2024-05-09T23:51:26.467Z,6.80
2024-05-09T23:53:59.063Z,6.50
2024-05-09T23:56:31.926Z,7.20
2024-05-09T23:59:04.461Z,6.60
